Time;durP1;ratioP1;P1;durP2;ratioP2;P2;SDS_P1;SDS_P2;PMS_P1;PMS_P2;Temp;Humidity;BMP_temperature;BMP_pressure;BME280_temperature;BME280_humidity;BME280_pressure;Samples;Min_cycle;Max_cycle;Signal;HPM_P1;HPM_P2
2021/04/23 00:01:20;;;;;;;10.23;6.97;;;25.30;42.20;;;;;;5019800;28;20121;-85
2021/04/23 00:03:49;;;;;;;6.15;5.07;;;25.50;41.40;;;;;;5010818;28;20024;-84
2021/04/23 00:06:36;;;;;;;9.30;7.03;;;25.30;41.60;;;;;;5012242;28;20040;-84
2021/04/23 00:09:17;;;;;;;10.88;6.95;;;25.40;42.00;;;;;;5009636;28;20038;-84
2021/04/23 00:11:51;;;;;;;10.45;6.75;;;25.60;42.00;;;;;;5010438;28;20037;-82
2021/04/23 00:14:27;;;;;;;12.15;7.82;;;25.40;42.30;;;;;;5009167;28;20018;-83
2021/04/23 00:16:54;;;;;;;;;;;26.00;42.60;;;;;;5011953;28;20077;-81
2021/04/23 00:19:26;;;;;;;9.52;7.30;;;26.30;40.40;;;;;;5009140;28;19913;-83
2021/04/23 00:21:55;;;;;;;10.10;7.20;;;26.50;40.20;;;;;;5009835;28;20438;-83
2021/04/23 00:24:23;;;;;;;13.30;9.95;;;26.60;40.00;;;;;;5008508;28;20018;-83
2021/04/23 00:26:51;;;;;;;22.50;13.05;;;26.80;40.70;;;;;;5003622;28;20061;-82
2021/04/23 00:29:19;;;;;;;10.18;6.22;;;26.70;41.60;;;;;;5005333;28;20555;-80
2021/04/23 00:34:34;;;;;;;6.00;3.97;;;26.80;38.50;;;;;;5008424;28;20109;-84
2021/04/23 00:37:02;;;;;;;11.85;7.45;;;26.80;34.60;;;;;;5008018;28;20342;-79
2021/04/23 00:39:29;;;;;;;15.40;6.57;;;27.20;39.00;;;;;;5009812;28;20029;-84
2021/04/23 00:41:58;;;;;;;13.18;8.38;;;27.60;38.60;;;;;;5009247;28;20029;-89
2021/04/23 00:44:25;;;;;;;7.32;5.13;;;27.60;37.70;;;;;;5006440;28;20040;-87
2021/04/23 00:46:53;;;;;;;9.73;3.65;;;27.80;38.30;;;;;;5009206;28;20095;-80
2021/04/23 00:49:21;;;;;;;8.75;4.85;;;27.70;37.80;;;;;;5003172;28;20042;-79
2021/04/23 00:52:06;;;;;;;8.27;4.18;;;27.40;39.60;;;;;;5003276;28;20033;-81
2021/04/23 00:54:33;;;;;;;6.30;4.15;;;27.50;38.50;;;;;;5004493;28;21198;-82
2021/04/23 00:57:02;;;;;;;5.10;3.42;;;26.60;35.00;;;;;;5005570;28;20026;-83
2021/04/23 00:59:30;;;;;;;6.82;4.07;;;26.20;38.80;;;;;;5027575;28;20559;-86
2021/04/23 01:02:04;;;;;;;8.25;3.90;;;26.50;37.30;;;;;;5015534;28;20136;-81
2021/04/23 01:04:32;;;;;;;5.90;3.45;;;27.00;38.80;;;;;;4985550;28;20040;-80
2021/04/23 01:07:00;;;;;;;9.32;3.38;;;27.40;38.70;;;;;;5006827;28;20033;-80
2021/04/23 01:09:30;;;;;;;6.88;3.38;;;27.70;36.80;;;;;;5011956;28;20026;-80
2021/04/23 01:12:01;;;;;;;7.53;3.08;;;27.80;38.40;;;;;;5014026;28;20034;-82
2021/04/23 01:14:28;;;;;;;4.78;2.05;;;27.80;36.90;;;;;;5018828;28;20068;-79
2021/04/23 01:16:56;;;;;;;5.32;1.70;;;28.20;36.90;;;;;;5019281;28;20068;-80
2021/04/23 01:19:25;;;;;;;4.30;2.35;;;28.10;35.60;;;;;;5013472;28;20018;-79
2021/04/23 01:21:53;;;;;;;5.45;2.25;;;28.20;37.20;;;;;;5008652;28;21185;-80
2021/04/23 01:24:21;;;;;;;4.57;2.05;;;28.40;36.70;;;;;;5006507;28;20034;-80
2021/04/23 01:26:53;;;;;;;5.03;2.08;;;28.40;36.10;;;;;;5007795;28;20022;-79
2021/04/23 01:29:23;;;;;;;7.07;2.28;;;28.50;36.20;;;;;;5008246;28;20063;-80
2021/04/23 01:31:54;;;;;;;7.57;2.22;;;28.50;36.60;;;;;;5007475;28;20033;-80
2021/04/23 01:34:30;;;;;;;5.10;2.22;;;29.30;35.60;;;;;;5004927;28;20022;-79
2021/04/23 01:37:01;;;;;;;4.80;1.77;;;29.40;34.90;;;;;;5009517;28;20499;-82
2021/04/23 01:39:32;;;;;;;15.60;1.92;;;28.90;35.80;;;;;;5010900;28;20038;-79
2021/04/23 01:42:00;;;;;;;6.63;1.55;;;28.60;32.90;;;;;;5009552;28;20447;-79
2021/04/23 01:44:29;;;;;;;5.72;1.35;;;28.90;35.10;;;;;;5010964;28;20090;-79
2021/04/23 01:46:57;;;;;;;6.72;2.03;;;29.20;36.80;;;;;;5011643;28;20034;-80
2021/04/23 01:49:25;;;;;;;4.90;1.50;;;28.50;33.60;;;;;;5020096;28;20034;-81
2021/04/23 01:51:58;;;;;;;6.97;1.95;;;28.30;36.30;;;;;;5016408;28;20056;-81
2021/04/23 01:54:28;;;;;;;3.70;1.83;;;28.90;38.20;;;;;;5012889;28;20028;-83
2021/04/23 01:56:56;;;;;;;4.10;1.48;;;29.30;35.90;;;;;;5011136;28;20034;-82
2021/04/23 01:59:26;;;;;;;5.70;1.50;;;28.90;35.70;;;;;;5008192;28;20037;-84
2021/04/23 02:01:55;;;;;;;6.85;1.63;;;29.00;33.10;;;;;;5007663;28;20020;-79
2021/04/23 02:04:23;;;;;;;3.30;1.42;;;28.60;37.70;;;;;;5007219;28;20034;-80
2021/04/23 02:06:52;;;;;;;5.63;1.73;;;29.10;36.90;;;;;;5005905;28;20094;-80
2021/04/23 02:09:19;;;;;;;3.42;1.75;;;28.60;33.40;;;;;;5005299;28;20054;-81
2021/04/23 02:11:50;;;;;;;7.35;1.83;;;27.60;34.50;;;;;;5003902;28;20046;-82
2021/04/23 02:14:18;;;;;;;5.43;1.70;;;27.90;37.80;;;;;;5005153;28;20130;-80
2021/04/23 02:16:47;;;;;;;6.00;1.30;;;28.40;36.00;;;;;;5008338;28;20412;-85
2021/04/23 02:19:15;;;;;;;5.18;1.48;;;28.30;35.10;;;;;;5009839;28;20054;-81
2021/04/23 02:21:45;;;;;;;5.57;1.60;;;27.90;33.10;;;;;;5003894;28;20032;-81
2021/04/23 02:24:12;;;;;;;3.22;1.15;;;27.90;37.00;;;;;;5003368;28;20030;-80
2021/04/23 02:26:41;;;;;;;7.43;2.67;;;28.40;35.30;;;;;;5007207;28;20072;-82
2021/04/23 02:29:11;;;;;;;4.70;1.08;;;28.20;32.60;;;;;;5005552;28;20041;-81
2021/04/23 02:31:41;;;;;;;3.08;1.05;;;28.00;36.40;;;;;;5007892;28;20076;-81
2021/04/23 02:34:13;;;;;;;5.75;1.40;;;28.50;36.10;;;;;;5015537;28;20037;-82
2021/04/23 02:36:42;;;;;;;2.42;1.40;;;28.50;33.60;;;;;;5018896;28;20022;-83
2021/04/23 02:39:12;;;;;;;5.40;1.40;;;28.80;36.20;;;;;;5010987;28;20020;-85
2021/04/23 02:41:41;;;;;;;4.43;1.13;;;28.90;34.80;;;;;;5009759;28;20378;-82
2021/04/23 02:44:08;;;;;;;3.75;1.40;;;28.60;34.10;;;;;;5008484;28;20029;-80
2021/04/23 02:46:38;;;;;;;4.90;0.80;;;28.30;32.60;;;;;;5009631;28;20737;-81
2021/04/23 02:49:07;;;;;;;3.53;1.02;;;28.10;36.60;;;;;;5004613;28;20046;-81
2021/04/23 02:51:39;;;;;;;3.38;0.60;;;28.20;33.80;;;;;;5008214;28;20481;-81
2021/04/23 02:54:07;;;;;;;2.13;0.90;;;28.60;34.20;;;;;;5007141;28;20121;-81
2021/04/23 02:56:35;;;;;;;2.72;0.50;;;29.00;34.80;;;;;;5006103;28;20049;-82
2021/04/23 02:59:05;;;;;;;2.95;1.27;;;28.50;33.10;;;;;;5008134;28;20049;-83
2021/04/23 03:01:38;;;;;;;1.13;0.50;;;29.00;32.90;;;;;;5005283;28;20471;-82
2021/04/23 03:04:10;;;;;;;2.47;0.52;;;29.10;34.20;;;;;;5007933;28;20060;-82
2021/04/23 03:06:46;;;;;;;2.88;0.50;;;29.40;32.00;;;;;;5006178;28;20026;-82
2021/04/23 03:09:20;;;;;;;2.30;0.47;;;29.20;33.80;;;;;;5007001;28;20133;-82
2021/04/23 03:12:21;;;;;;;3.30;0.50;;;29.30;32.80;;;;;;5008428;28;20575;-82
2021/04/23 03:14:54;;;;;;;2.38;0.60;;;28.80;31.90;;;;;;5001611;28;20053;-86
2021/04/23 03:17:28;;;;;;;1.35;0.50;;;28.90;34.20;;;;;;5006193;28;20052;-83
2021/04/23 03:19:59;;;;;;;1.42;0.40;;;28.90;35.40;;;;;;5001733;28;20033;-81
2021/04/23 03:22:28;;;;;;;1.83;0.73;;;28.80;34.50;;;;;;5008732;28;20037;-84
2021/04/23 03:25:06;;;;;;;;;;;;;;;;;;;;;
2021/04/23 03:27:39;;;;;;;4.50;0.77;;;29.10;33.40;;;;;;5011869;28;20048;-82
2021/04/23 03:30:18;;;;;;;1.52;0.57;;;28.70;33.40;;;;;;5008660;28;20084;-83
2021/04/23 03:33:03;;;;;;;0.77;0.43;;;28.40;32.30;;;;;;5012056;28;20025;-82
2021/04/23 03:35:36;;;;;;;1.80;0.43;;;27.80;35.70;;;;;;5030692;28;20029;-79
2021/04/23 03:38:08;;;;;;;2.22;0.70;;;27.90;33.40;;;;;;5008266;28;20037;-85
2021/04/23 03:40:54;;;;;;;2.35;0.60;;;27.90;35.70;;;;;;5009386;28;20036;-84
2021/04/23 03:43:24;;;;;;;3.85;0.90;;;27.80;34.20;;;;;;5009289;28;20038;-84
2021/04/23 03:45:54;;;;;;;2.35;0.75;;;27.30;34.60;;;;;;5010804;28;20665;-86
2021/04/23 03:48:22;;;;;;;3.13;0.70;;;27.00;36.80;;;;;;5009322;28;20044;-85
2021/04/23 03:50:49;;;;;;;2.65;0.63;;;26.70;34.20;;;;;;5003626;28;20057;-83
2021/04/23 03:53:18;;;;;;;2.45;0.35;;;26.60;36.30;;;;;;5005092;28;20054;-81
2021/04/23 03:55:52;;;;;;;2.50;0.50;;;26.70;35.90;;;;;;5004414;28;20018;-82
2021/04/23 03:58:21;;;;;;;3.20;0.60;;;26.90;33.60;;;;;;5006410;28;20038;-78
2021/04/23 04:00:53;;;;;;;1.60;0.50;;;26.50;33.80;;;;;;5005194;28;20037;-78
2021/04/23 04:03:22;;;;;;;2.45;0.70;;;26.50;35.90;;;;;;5006827;28;20040;-78
2021/04/23 04:05:50;;;;;;;1.90;0.40;;;26.70;35.10;;;;;;5007736;28;20022;-78
2021/04/23 04:08:18;;;;;;;2.50;0.60;;;26.70;35.70;;;;;;5004857;28;20030;-83
2021/04/23 04:10:46;;;;;;;2.83;0.50;;;26.60;35.40;;;;;;5006120;28;20172;-80
2021/04/23 04:13:16;;;;;;;3.30;1.02;;;26.60;34.00;;;;;;5017496;28;20045;-83
2021/04/23 04:15:43;;;;;;;2.90;0.70;;;26.50;34.60;;;;;;5017703;28;20053;-82
2021/04/23 04:18:14;;;;;;;2.88;0.70;;;26.50;35.80;;;;;;5012077;28;20041;-86
2021/04/23 04:20:46;;;;;;;3.83;0.88;;;26.30;35.40;;;;;;5007483;28;20384;-82
2021/04/23 04:23:17;;;;;;;2.00;0.52;;;26.30;35.10;;;;;;5009733;28;20656;-83
2021/04/23 04:25:47;;;;;;;4.45;1.23;;;26.10;35.40;;;;;;5006562;28;20078;-80
2021/04/23 04:28:15;;;;;;;2.55;0.80;;;26.20;37.00;;;;;;5010097;28;20041;-82
2021/04/23 04:30:43;;;;;;;2.97;0.80;;;26.00;36.80;;;;;;5008308;28;20058;-82
2021/04/23 04:33:13;;;;;;;2.05;0.85;;;26.00;37.10;;;;;;5010158;28;20014;-81
2021/04/23 04:35:41;;;;;;;3.50;0.60;;;25.80;37.30;;;;;;5015732;28;20033;-81
2021/04/23 04:38:10;;;;;;;1.70;0.80;;;25.80;36.10;;;;;;5007717;28;20030;-82
2021/04/23 04:40:40;;;;;;;4.97;0.95;;;25.50;36.50;;;;;;5023223;28;20504;-83
2021/04/23 04:43:09;;;;;;;3.67;0.75;;;25.60;37.80;;;;;;5007138;28;20117;-83
2021/04/23 04:45:37;;;;;;;4.00;0.60;;;25.50;37.60;;;;;;5011376;28;20599;-82
2021/04/23 04:48:05;;;;;;;2.47;0.75;;;25.50;37.10;;;;;;5014386;28;20026;-77
2021/04/23 04:50:42;;;;;;;2.85;0.50;;;25.40;36.30;;;;;;5007607;28;20478;-81
2021/04/23 04:53:11;;;;;;;3.95;0.57;;;25.10;35.50;;;;;;5006036;28;20049;-82
2021/04/23 04:55:41;;;;;;;3.05;0.65;;;25.00;37.10;;;;;;5010675;28;20109;-82
2021/04/23 04:58:11;;;;;;;4.00;1.17;;;24.90;38.70;;;;;;5011942;28;20488;-83
2021/04/23 05:00:40;;;;;;;6.80;1.33;;;25.00;39.50;;;;;;5009110;28;20468;-82
2021/04/23 05:03:08;;;;;;;4.93;1.23;;;25.10;39.10;;;;;;5007508;28;20084;-82
2021/04/23 05:05:36;;;;;;;3.00;1.10;;;25.00;37.60;;;;;;5010413;28;20107;-80
2021/04/23 05:08:04;;;;;;;3.50;0.70;;;24.70;38.50;;;;;;5009836;28;20396;-81
2021/04/23 05:10:32;;;;;;;2.42;0.68;;;24.60;39.20;;;;;;5009167;28;20030;-80
2021/04/23 05:13:00;;;;;;;1.67;0.70;;;24.60;38.90;;;;;;5011379;28;20026;-82
2021/04/23 05:15:28;;;;;;;2.00;0.90;;;24.60;39.60;;;;;;5010598;28;20049;-80
2021/04/23 05:17:56;;;;;;;43.15;5.43;;;24.60;39.90;;;;;;5011163;28;20025;-84
2021/04/23 05:20:24;;;;;;;5.03;1.13;;;24.70;39.00;;;;;;5024807;28;20045;-81
2021/04/23 05:22:53;;;;;;;2.90;0.73;;;24.70;38.60;;;;;;5010741;28;20079;-79
2021/04/23 05:25:23;;;;;;;2.83;0.70;;;24.40;37.40;;;;;;5009545;28;20030;-82
2021/04/23 05:27:54;;;;;;;6.10;0.98;;;24.40;39.00;;;;;;5006861;28;20053;-83
2021/04/23 05:30:27;;;;;;;5.43;0.80;;;24.30;39.50;;;;;;5013381;28;20036;-82
2021/04/23 05:32:55;;;;;;;5.30;0.85;;;24.30;39.00;;;;;;5019160;28;20026;-82
2021/04/23 05:35:24;;;;;;;2.47;0.50;;;24.30;39.20;;;;;;5025026;28;20120;-83
2021/04/23 05:37:52;;;;;;;2.25;0.75;;;24.50;39.90;;;;;;5021690;28;20061;-80
2021/04/23 05:40:43;;;;;;;4.03;0.90;;;24.60;39.40;;;;;;5007309;28;20014;-80
2021/04/23 05:43:13;;;;;;;15.80;1.17;;;24.50;40.70;;;;;;5011087;28;20088;-81
2021/04/23 05:45:43;;;;;;;3.03;0.70;;;24.60;40.00;;;;;;5008656;28;20101;-80
2021/04/23 05:48:12;;;;;;;5.57;1.25;;;24.70;40.20;;;;;;5011064;28;20057;-88
2021/04/23 05:50:40;;;;;;;4.47;0.90;;;24.80;39.20;;;;;;5012248;28;20450;-80
2021/04/23 05:53:08;;;;;;;3.72;0.70;;;24.70;38.40;;;;;;5010962;28;20029;-82
2021/04/23 05:55:36;;;;;;;2.45;0.75;;;24.60;39.70;;;;;;5011168;28;20033;-81
2021/04/23 05:58:05;;;;;;;1.73;0.60;;;24.60;39.60;;;;;;5012145;28;20037;-81
2021/04/23 06:00:34;;;;;;;3.75;1.02;;;24.50;39.10;;;;;;5009554;28;20088;-86
2021/04/23 06:03:04;;;;;;;3.13;0.73;;;24.50;40.00;;;;;;5010954;28;20041;-86
2021/04/23 06:05:34;;;;;;;2.60;0.68;;;24.50;41.10;;;;;;5012118;28;20030;-86
2021/04/23 06:08:05;;;;;;;5.15;1.13;;;24.40;40.20;;;;;;5008213;28;20022;-82
2021/04/23 06:10:34;;;;;;;3.05;1.10;;;24.40;40.20;;;;;;5005443;28;20105;-83
2021/04/23 06:13:02;;;;;;;2.97;1.40;;;24.40;40.20;;;;;;5010449;28;20033;-81
2021/04/23 06:15:30;;;;;;;4.55;0.70;;;24.40;40.90;;;;;;5004308;28;20140;-82
2021/04/23 06:17:58;;;;;;;2.90;0.85;;;24.30;40.30;;;;;;5007594;28;20058;-79
2021/04/23 06:20:31;;;;;;;2.15;0.80;;;24.30;41.70;;;;;;5013654;28;20471;-83
2021/04/23 06:23:01;;;;;;;4.05;0.90;;;24.20;42.30;;;;;;5008359;28;20057;-80
2021/04/23 06:25:30;;;;;;;2.10;0.40;;;24.10;42.00;;;;;;5024791;28;20040;-79
2021/04/23 06:27:58;;;;;;;5.93;1.58;;;23.90;41.40;;;;;;5009031;28;20033;-85
2021/04/23 06:30:30;;;;;;;4.47;0.80;;;23.70;41.70;;;;;;5010917;28;20036;-87
2021/04/23 06:32:59;;;;;;;3.42;0.90;;;23.40;41.60;;;;;;5014237;28;20041;-83
2021/04/23 06:35:32;;;;;;;4.85;0.85;;;23.20;41.70;;;;;;5012748;28;20054;-83
2021/04/23 06:37:59;;;;;;;4.25;0.98;;;22.90;42.30;;;;;;5009918;28;20044;-83
2021/04/23 06:40:27;;;;;;;2.78;0.60;;;22.80;42.90;;;;;;5008321;28;20037;-83
2021/04/23 06:42:54;;;;;;;2.00;0.90;;;22.60;43.60;;;;;;5009932;28;20053;-80
2021/04/23 06:45:22;;;;;;;2.17;0.88;;;22.50;43.60;;;;;;5014509;28;20022;-82
2021/04/23 06:47:50;;;;;;;5.47;1.67;;;22.30;43.50;;;;;;5009015;28;20022;-81
2021/04/23 06:50:22;;;;;;;6.88;1.02;;;22.30;44.00;;;;;;5011686;28;20332;-81
2021/04/23 06:52:50;;;;;;;3.20;0.77;;;22.20;44.00;;;;;;5015023;28;20030;-89
2021/04/23 06:55:18;;;;;;;5.72;1.17;;;22.10;44.60;;;;;;5012742;28;20168;-80
2021/04/23 06:57:46;;;;;;;2.88;0.82;;;22.10;45.50;;;;;;5012784;28;20330;-83
2021/04/23 07:00:27;;;;;;;4.50;1.00;;;22.00;45.00;;;;;;5015465;28;20032;-85
2021/04/23 07:02:57;;;;;;;5.25;1.10;;;21.90;46.10;;;;;;5011545;28;20362;-82
2021/04/23 07:05:25;;;;;;;4.03;0.88;;;21.70;45.70;;;;;;5012948;28;20030;-82
2021/04/23 07:07:53;;;;;;;4.85;1.33;;;21.50;46.40;;;;;;5015401;28;20530;-82
2021/04/23 07:10:25;;;;;;;3.83;1.27;;;21.30;46.90;;;;;;5015091;28;20124;-83
2021/04/23 07:12:52;;;;;;;5.90;2.08;;;21.20;46.90;;;;;;5011375;28;20449;-82
2021/04/23 07:15:31;;;;;;;6.97;3.05;;;21.00;47.80;;;;;;5012315;28;20437;-83
2021/04/23 07:18:01;;;;;;;4.75;2.30;;;20.90;48.30;;;;;;5024116;28;20049;-83
2021/04/23 07:20:29;;;;;;;4.53;2.60;;;20.80;49.80;;;;;;5023788;28;20034;-82
2021/04/23 07:22:57;;;;;;;6.55;2.42;;;20.80;50.30;;;;;;5016737;28;21770;-83
2021/04/23 07:25:25;;;;;;;4.60;1.95;;;20.70;50.90;;;;;;5005575;28;20022;-81
2021/04/23 07:27:53;;;;;;;5.85;1.55;;;20.60;50.00;;;;;;5008153;28;20125;-82
2021/04/23 07:30:27;;;;;;;5.47;1.80;;;20.50;49.60;;;;;;5013140;28;20033;-82
2021/04/23 07:32:57;;;;;;;6.75;2.17;;;20.40;50.60;;;;;;5015577;28;20073;-83
2021/04/23 07:35:25;;;;;;;5.68;2.80;;;20.20;51.70;;;;;;5031195;28;20041;-83
2021/04/23 07:38:02;;;;;;;5.32;2.70;;;20.00;52.60;;;;;;5014311;28;20022;-81
2021/04/23 07:40:30;;;;;;;5.85;2.65;;;19.80;53.10;;;;;;5018873;28;20040;-85
2021/04/23 07:43:00;;;;;;;7.00;2.17;;;19.70;53.70;;;;;;5015726;28;20037;-81
2021/04/23 07:45:28;;;;;;;6.63;2.30;;;19.60;54.40;;;;;;5012165;28;20073;-83
2021/04/23 07:47:57;;;;;;;5.05;2.38;;;19.50;54.70;;;;;;5016459;28;20068;-81
2021/04/23 07:50:27;;;;;;;5.65;2.40;;;19.50;55.20;;;;;;5017748;28;20101;-83
2021/04/23 07:52:55;;;;;;;6.60;3.08;;;19.40;55.70;;;;;;5010389;28;20172;-83
2021/04/23 07:55:24;;;;;;;7.20;2.90;;;19.30;56.10;;;;;;5013995;28;20030;-82
2021/04/23 07:57:54;;;;;;;6.28;2.72;;;19.30;56.20;;;;;;5011671;28;20038;-83
2021/04/23 08:00:24;;;;;;;6.28;2.10;;;19.10;57.20;;;;;;5009177;28;20469;-81
2021/04/23 08:02:53;;;;;;;5.65;2.53;;;19.10;57.50;;;;;;5011753;28;20037;-81
2021/04/23 08:05:22;;;;;;;6.75;2.70;;;19.00;57.60;;;;;;5009661;28;20037;-83
2021/04/23 08:07:50;;;;;;;7.50;2.15;;;18.90;57.80;;;;;;5009806;28;20022;-83
2021/04/23 08:10:19;;;;;;;3.83;2.00;;;18.80;58.00;;;;;;5009279;28;20077;-83
2021/04/23 08:12:48;;;;;;;5.50;1.85;;;18.80;58.50;;;;;;5009789;28;20058;-81
2021/04/23 08:15:17;;;;;;;7.03;1.95;;;18.70;58.60;;;;;;5009624;28;20133;-82
2021/04/23 08:17:45;;;;;;;4.32;2.00;;;18.60;59.00;;;;;;5007530;28;20044;-80
2021/04/23 08:20:17;;;;;;;8.35;2.47;;;18.50;59.40;;;;;;5007610;28;20025;-81
2021/04/23 08:22:46;;;;;;;5.18;2.17;;;18.50;59.40;;;;;;5009285;28;20448;-84
2021/04/23 08:25:17;;;;;;;4.40;1.48;;;18.40;59.80;;;;;;5008161;28;20033;-82
2021/04/23 08:27:45;;;;;;;5.90;1.80;;;18.40;60.00;;;;;;5008479;28;20014;-81
2021/04/23 08:30:14;;;;;;;5.50;2.42;;;18.40;60.40;;;;;;5010081;28;20480;-80
2021/04/23 08:32:45;;;;;;;4.82;2.20;;;18.30;60.40;;;;;;5006604;28;20089;-81
2021/04/23 08:35:13;;;;;;;8.27;2.47;;;18.20;60.70;;;;;;5007149;28;20112;-81
2021/04/23 08:37:42;;;;;;;6.63;2.33;;;18.10;61.00;;;;;;5007011;28;20057;-83
2021/04/23 08:40:13;;;;;;;3.30;1.60;;;18.10;61.20;;;;;;5005699;28;20065;-82
2021/04/23 08:42:41;;;;;;;6.65;2.08;;;18.00;61.20;;;;;;5007492;28;20022;-79
2021/04/23 08:45:14;;;;;;;6.82;2.22;;;17.90;61.10;;;;;;5008631;28;20057;-79
2021/04/23 08:47:44;;;;;;;4.55;2.30;;;17.80;61.40;;;;;;5006737;28;20022;-82
2021/04/23 08:50:14;;;;;;;6.43;2.17;;;17.80;61.20;;;;;;5005246;28;20050;-80
2021/04/23 08:52:44;;;;;;;5.60;1.90;;;17.80;61.60;;;;;;5003009;28;20042;-81
2021/04/23 08:55:16;;;;;;;7.35;2.10;;;17.80;62.00;;;;;;5008635;28;20034;-80
2021/04/23 08:57:44;;;;;;;8.60;2.22;;;17.80;63.30;;;;;;5010990;28;20121;-81
2021/04/23 09:00:15;;;;;;;7.75;2.40;;;17.70;63.80;;;;;;5012889;28;20041;-81
2021/04/23 09:02:44;;;;;;;5.30;1.73;;;17.60;64.30;;;;;;5009732;28;20025;-80
2021/04/23 09:05:14;;;;;;;4.90;2.10;;;17.60;63.90;;;;;;5009885;28;20038;-80
2021/04/23 09:07:42;;;;;;;9.95;2.10;;;17.40;64.20;;;;;;5010873;28;20152;-80
2021/04/23 09:10:15;;;;;;;4.55;2.00;;;17.40;65.00;;;;;;5010224;28;20042;-81
2021/04/23 09:12:43;;;;;;;7.43;2.17;;;17.30;65.60;;;;;;5009934;28;20026;-80
2021/04/23 09:15:24;;;;;;;6.47;2.50;;;17.30;66.40;;;;;;5012173;28;20042;-80
2021/04/23 09:18:15;;;;;;;6.80;3.47;;;17.20;67.10;;;;;;5011008;28;20037;-82
2021/04/23 09:20:46;;;;;;;8.18;4.57;;;17.10;67.20;;;;;;5009272;28;20070;-82
2021/04/23 09:23:16;;;;;;;13.68;5.45;;;17.10;66.20;;;;;;5010273;28;20060;-82
2021/04/23 09:25:49;;;;;;;7.22;3.88;;;16.90;66.40;;;;;;5011564;28;20022;-81
2021/04/23 09:28:38;;;;;;;9.60;3.17;;;16.90;66.50;;;;;;5011410;28;20583;-80
2021/04/23 09:31:30;;;;;;;9.05;3.75;;;16.90;66.90;;;;;;5008332;28;20120;-80
2021/04/23 09:34:04;;;;;;;7.10;3.15;;;16.80;67.40;;;;;;5018683;28;20504;-80
2021/04/23 09:36:38;;;;;;;8.38;2.90;;;16.70;67.70;;;;;;5011010;28;20030;-79
2021/04/23 09:39:09;;;;;;;9.23;4.20;;;16.60;68.00;;;;;;5010080;28;20087;-81
2021/04/23 09:41:38;;;;;;;13.35;4.20;;;16.50;68.50;;;;;;5009436;28;20037;-81
2021/04/23 09:44:26;;;;;;;7.55;3.20;;;16.40;68.70;;;;;;5009653;28;20361;-82
2021/04/23 09:47:05;;;;;;;11.55;3.72;;;16.40;69.90;;;;;;5008033;28;20044;-80
2021/04/23 09:49:34;;;;;;;12.25;5.07;;;16.40;69.90;;;;;;5011146;28;20071;-80
2021/04/23 09:52:04;;;;;;;6.20;3.33;;;16.40;69.90;;;;;;5011335;28;20586;-80
2021/04/23 09:54:32;;;;;;;8.45;3.13;;;16.30;69.80;;;;;;5011119;28;20654;-81
2021/04/23 09:57:01;;;;;;;8.18;2.67;;;16.30;69.70;;;;;;5012890;28;20033;-80
2021/04/23 09:59:30;;;;;;;6.05;2.85;;;16.30;69.90;;;;;;5018776;28;20492;-80
2021/04/23 10:02:05;;;;;;;6.63;3.13;;;16.30;70.70;;;;;;5020929;28;20069;-81
2021/04/23 10:04:36;;;;;;;4.20;2.53;;;16.20;70.90;;;;;;5013209;28;20056;-80
2021/04/23 10:07:16;;;;;;;5.85;2.45;;;16.20;71.30;;;;;;5016761;28;20038;-79
2021/04/23 10:09:55;;;;;;;7.80;3.08;;;16.10;71.50;;;;;;5008110;28;20044;-81
2021/04/23 10:12:40;;;;;;;7.82;3.13;;;16.10;71.90;;;;;;5005346;28;20400;-81
2021/04/23 10:15:20;;;;;;;7.20;3.20;;;16.00;71.90;;;;;;5011623;28;20054;-79
2021/04/23 10:17:53;;;;;;;5.05;2.47;;;16.00;71.90;;;;;;5006370;28;20471;-80
2021/04/23 10:20:32;;;;;;;7.10;2.40;;;16.00;71.70;;;;;;5005974;28;20093;-80
2021/04/23 10:23:01;;;;;;;5.32;2.65;;;15.90;71.90;;;;;;5009198;28;20122;-80
2021/04/23 10:25:30;;;;;;;6.63;3.00;;;15.80;72.10;;;;;;5009556;28;20468;-80
2021/04/23 10:28:00;;;;;;;12.30;3.75;;;15.70;72.50;;;;;;5008503;28;20109;-80
2021/04/23 10:30:33;;;;;;;6.60;2.92;;;15.60;73.30;;;;;;5010142;28;20044;-81
2021/04/23 10:33:04;;;;;;;5.60;2.63;;;15.50;73.80;;;;;;5008543;28;20049;-81
2021/04/23 10:35:32;;;;;;;4.88;2.72;;;15.50;74.70;;;;;;5007727;28;20100;-80
2021/04/23 10:38:23;;;;;;;4.32;2.58;;;15.40;74.50;;;;;;5008965;28;20076;-80
2021/04/23 10:41:06;;;;;;;6.70;3.42;;;15.40;74.40;;;;;;5005205;28;20053;-80
2021/04/23 10:43:49;;;;;;;7.05;2.63;;;15.20;74.70;;;;;;5006122;28;20380;-80
2021/04/23 10:46:17;;;;;;;5.50;3.20;;;15.10;75.10;;;;;;5007880;28;20026;-81
2021/04/23 10:48:47;;;;;;;6.68;3.10;;;15.00;75.30;;;;;;5009352;28;20030;-80
2021/04/23 10:51:20;;;;;;;4.28;2.58;;;15.00;76.20;;;;;;5008640;28;20041;-81
2021/04/23 10:53:50;;;;;;;6.38;3.03;;;14.90;76.60;;;;;;5000832;28;20682;-81
2021/04/23 10:56:29;;;;;;;6.40;3.58;;;14.90;76.90;;;;;;5006345;28;20615;-81
2021/04/23 10:59:05;;;;;;;5.85;3.17;;;14.80;76.40;;;;;;5005420;28;20054;-81
2021/04/23 11:01:38;;;;;;;7.85;3.05;;;14.70;77.30;;;;;;5000937;28;20117;-81
2021/04/23 11:04:10;;;;;;;6.22;3.95;;;14.70;78.10;;;;;;5003571;28;20032;-81
2021/04/23 11:06:40;;;;;;;7.97;3.10;;;14.70;78.50;;;;;;5004035;28;20500;-80
2021/04/23 11:09:18;;;;;;;13.20;4.10;;;14.70;78.30;;;;;;5003936;28;20030;-79
2021/04/23 11:12:08;;;;;;;7.85;3.45;;;14.70;78.00;;;;;;5005395;28;20091;-77
2021/04/23 11:14:36;;;;;;;6.70;3.75;;;14.60;77.70;;;;;;5005695;28;21375;-79
2021/04/23 11:17:19;;;;;;;7.63;4.63;;;14.50;78.10;;;;;;5003201;28;20040;-76
2021/04/23 11:19:51;;;;;;;8.00;5.05;;;14.40;78.70;;;;;;5002025;28;20543;-79
2021/04/23 11:22:26;;;;;;;8.95;5.22;;;14.40;79.30;;;;;;5002113;28;20124;-84
2021/04/23 11:25:18;;;;;;;;;;;14.40;79.60;;;;;;5007377;28;20026;-85
2021/04/23 11:28:05;;;;;;;11.93;6.18;;;14.30;80.00;;;;;;5009375;28;19905;-84
2021/04/23 11:30:57;;;;;;;14.00;6.38;;;14.30;79.70;;;;;;5009416;28;20044;-82
2021/04/23 11:33:47;;;;;;;11.52;5.47;;;14.30;79.00;;;;;;5004065;28;20053;-82
2021/04/23 11:36:34;;;;;;;13.15;6.13;;;14.20;79.00;;;;;;5006826;28;20555;-83
2021/04/23 11:39:08;;;;;;;11.88;5.32;;;14.20;79.50;;;;;;5011988;28;20464;-86
2021/04/23 11:41:36;;;;;;;15.10;5.05;;;14.10;79.30;;;;;;5010217;28;20038;-86
2021/04/23 11:44:23;;;;;;;10.48;4.63;;;14.10;79.60;;;;;;5012553;28;20064;-84
2021/04/23 11:46:53;;;;;;;20.63;5.03;;;14.00;80.20;;;;;;5007907;28;20413;-85
2021/04/23 11:49:21;;;;;;;13.15;4.60;;;14.00;80.50;;;;;;5017622;28;20419;-85
2021/04/23 11:51:52;;;;;;;10.95;5.25;;;13.90;81.10;;;;;;5014038;28;20036;-81
2021/04/23 11:54:38;;;;;;;14.05;4.97;;;13.80;80.30;;;;;;5011137;28;20697;-83
2021/04/23 11:57:08;;;;;;;11.32;6.07;;;13.80;80.80;;;;;;5016084;28;20097;-86
2021/04/23 11:59:37;;;;;;;16.05;7.55;;;13.70;80.90;;;;;;5008679;28;20042;-82
2021/04/23 12:02:05;;;;;;;32.83;19.33;;;13.70;81.80;;;;;;5011449;28;20022;-86
2021/04/23 12:04:46;;;;;;;37.17;21.15;;;13.60;82.00;;;;;;5011025;28;20030;-82
2021/04/23 12:07:15;;;;;;;38.42;20.73;;;13.60;82.70;;;;;;5013501;28;20041;-83
2021/04/23 12:09:44;;;;;;;38.38;22.33;;;13.40;83.30;;;;;;5013409;28;20045;-84
2021/04/23 12:12:14;;;;;;;38.13;22.50;;;13.40;83.20;;;;;;5023219;28;20454;-81
2021/04/23 12:14:47;;;;;;;29.67;16.52;;;13.30;82.80;;;;;;5023676;28;21871;-87
2021/04/23 12:17:16;;;;;;;27.40;14.10;;;13.20;83.50;;;;;;5022222;28;20040;-83
2021/04/23 12:19:45;;;;;;;22.65;11.20;;;13.20;83.70;;;;;;5017183;28;20036;-83
2021/04/23 12:22:12;;;;;;;19.25;8.80;;;13.10;84.10;;;;;;5020052;28;20022;-81
2021/04/23 12:24:39;;;;;;;18.77;9.85;;;13.10;84.10;;;;;;5016013;28;20523;-81
2021/04/23 12:27:08;;;;;;;18.58;10.35;;;13.10;84.70;;;;;;5021682;28;20022;-89
2021/04/23 12:29:35;;;;;;;20.27;10.23;;;13.10;84.50;;;;;;5018981;28;20030;-83
2021/04/23 12:32:03;;;;;;;18.88;10.38;;;13.10;84.00;;;;;;5015524;28;20033;-86
2021/04/23 12:34:30;;;;;;;17.60;7.32;;;13.10;84.40;;;;;;5013210;28;20026;-86
2021/04/23 12:37:02;;;;;;;22.05;9.52;;;13.10;84.10;;;;;;5017610;28;20511;-86
2021/04/23 12:39:30;;;;;;;17.73;6.32;;;13.10;84.50;;;;;;5015197;28;20451;-85
2021/04/23 12:42:03;;;;;;;24.48;7.38;;;13.10;84.50;;;;;;5026242;28;20026;-79
2021/04/23 12:44:34;;;;;;;25.90;8.32;;;13.10;84.10;;;;;;5024039;28;20157;-82
2021/04/23 12:47:13;;;;;;;22.50;7.78;;;13.10;84.30;;;;;;5015341;28;20036;-85
2021/04/23 12:49:42;;;;;;;32.45;7.63;;;13.10;84.90;;;;;;5010777;28;20120;-87
2021/04/23 12:52:18;;;;;;;22.48;7.60;;;13.00;85.00;;;;;;5016173;28;20068;-82
2021/04/23 12:54:49;;;;;;;18.83;6.40;;;13.00;85.10;;;;;;5014803;28;20050;-82
2021/04/23 12:57:32;;;;;;;14.52;6.38;;;13.00;85.10;;;;;;5024227;28;20046;-81
2021/04/23 13:00:07;;;;;;;25.42;6.28;;;12.90;84.90;;;;;;5021701;28;20044;-83
2021/04/23 13:02:37;;;;;;;25.27;7.40;;;12.90;85.40;;;;;;5023337;28;20029;-81
2021/04/23 13:05:05;;;;;;;19.77;6.30;;;12.80;85.40;;;;;;5020235;28;20061;-83
2021/04/23 13:07:36;;;;;;;15.32;6.15;;;12.80;85.20;;;;;;5022517;28;20013;-82
2021/04/23 13:10:09;;;;;;;18.02;6.90;;;12.70;85.90;;;;;;5015085;28;20358;-82